createdAt,value
2017-09-23T00:01:13.730Z,18.03
2017-09-23T00:03:41.195Z,24.83
2017-09-23T00:06:08.649Z,17.90
2017-09-23T00:08:36.116Z,16.93
2017-09-23T00:11:04.378Z,16.93
2017-09-23T00:13:31.849Z,15.83
2017-09-23T00:15:59.286Z,17.17
2017-09-23T00:18:26.753Z,16.63
2017-09-23T00:20:54.992Z,17.75
2017-09-23T00:23:22.475Z,18.42
2017-09-23T00:25:49.938Z,17.47
2017-09-23T00:28:17.416Z,18.23
2017-09-23T00:30:45.657Z,17.33
2017-09-23T00:33:13.108Z,16.85
2017-09-23T00:35:40.563Z,16.60
2017-09-23T00:38:08.039Z,16.30
2017-09-23T00:40:35.493Z,16.58
2017-09-23T00:43:02.984Z,15.70
2017-09-23T00:45:30.431Z,15.27
2017-09-23T00:47:58.671Z,16.77
2017-09-23T00:50:26.132Z,16.15
2017-09-23T00:52:53.594Z,16.27
2017-09-23T00:55:21.033Z,15.50
2017-09-23T00:57:48.512Z,15.27
2017-09-23T01:00:16.740Z,17.27
2017-09-23T01:02:44.212Z,15.95
2017-09-23T01:05:12.411Z,15.48
2017-09-23T01:07:39.862Z,16.92
2017-09-23T01:10:07.336Z,15.75
2017-09-23T01:12:35.558Z,16.57
2017-09-23T01:15:03.011Z,16.73
2017-09-23T01:17:30.480Z,16.07
2017-09-23T01:19:57.929Z,19.50
2017-09-23T01:22:25.404Z,14.90
2017-09-23T01:24:52.903Z,17.47
2017-09-23T01:27:21.836Z,15.90
2017-09-23T01:29:50.167Z,16.53
2017-09-23T01:32:18.419Z,14.30
2017-09-23T01:34:45.887Z,17.20
2017-09-23T01:37:13.316Z,15.47
2017-09-23T01:39:40.841Z,16.87
2017-09-23T01:42:08.304Z,15.43
2017-09-23T01:44:35.753Z,15.50
2017-09-23T01:47:03.204Z,14.80
2017-09-23T01:49:30.780Z,14.70
2017-09-23T01:51:58.229Z,15.57
2017-09-23T01:54:25.699Z,16.53
2017-09-23T01:56:53.140Z,17.00
2017-09-23T01:59:20.616Z,17.80
2017-09-23T02:01:48.078Z,17.30
2017-09-23T02:04:15.538Z,15.20
2017-09-23T02:06:42.995Z,17.80
2017-09-23T02:09:10.444Z,16.93
2017-09-23T02:11:37.909Z,16.33
2017-09-23T02:14:05.364Z,16.33
2017-09-23T02:16:32.815Z,19.97
2017-09-23T02:19:00.281Z,15.60
2017-09-23T02:21:27.732Z,17.30
2017-09-23T02:23:55.188Z,15.80
2017-09-23T02:26:22.653Z,17.00
2017-09-23T02:28:50.134Z,16.93
2017-09-23T02:31:18.819Z,16.40
2017-09-23T02:33:47.053Z,15.17
2017-09-23T02:36:14.508Z,14.87
2017-09-23T02:38:42.077Z,15.20
2017-09-23T02:41:09.582Z,16.52
2017-09-23T02:43:37.060Z,17.67
2017-09-23T02:46:04.538Z,16.97
2017-09-23T02:48:32.001Z,17.93
2017-09-23T02:50:59.449Z,16.80
2017-09-23T02:53:26.915Z,15.97
2017-09-23T02:55:54.389Z,15.90
2017-09-23T02:58:21.828Z,16.90
2017-09-23T03:00:49.317Z,15.60
2017-09-23T03:03:16.771Z,17.00
2017-09-23T03:05:44.983Z,15.67
2017-09-23T03:08:12.456Z,13.83
2017-09-23T03:10:39.912Z,15.55
2017-09-23T03:13:07.383Z,15.90
2017-09-23T03:15:34.827Z,16.30
2017-09-23T03:18:02.307Z,15.40
2017-09-23T03:20:29.748Z,14.83
2017-09-23T03:22:57.217Z,17.12
2017-09-23T03:25:24.659Z,17.23
2017-09-23T03:27:52.141Z,16.77
2017-09-23T03:30:20.354Z,17.50
2017-09-23T03:32:47.792Z,17.87
2017-09-23T03:35:15.264Z,18.37
2017-09-23T03:37:42.716Z,17.73
2017-09-23T03:40:10.171Z,16.17
2017-09-23T03:42:37.627Z,20.33
2017-09-23T03:45:05.115Z,18.37
2017-09-23T03:47:32.559Z,16.35
2017-09-23T03:50:00.000Z,17.90
2017-09-23T03:52:27.468Z,17.37
2017-09-23T03:54:54.935Z,17.03
2017-09-23T03:57:22.604Z,15.47
2017-09-23T03:59:50.060Z,17.60
2017-09-23T04:02:17.531Z,16.35
2017-09-23T04:04:44.980Z,16.67
2017-09-23T04:07:12.565Z,16.35
2017-09-23T04:09:40.805Z,17.05
2017-09-23T04:12:08.263Z,17.37
2017-09-23T04:14:35.727Z,16.33
2017-09-23T04:17:03.200Z,17.85
2017-09-23T04:19:31.450Z,17.40
2017-09-23T04:21:58.905Z,17.15
2017-09-23T04:24:26.440Z,17.48
2017-09-23T04:26:53.899Z,17.02
2017-09-23T04:29:21.383Z,16.45
2017-09-23T04:31:48.836Z,15.77
2017-09-23T04:34:16.413Z,17.50
2017-09-23T04:36:43.863Z,16.10
2017-09-23T04:39:11.334Z,17.15
2017-09-23T04:41:38.810Z,15.25
2017-09-23T04:44:06.257Z,16.42
2017-09-23T04:46:33.737Z,15.82
2017-09-23T04:49:01.197Z,15.10
2017-09-23T04:51:28.665Z,16.35
2017-09-23T04:53:56.120Z,19.48
2017-09-23T04:56:23.609Z,16.45
2017-09-23T04:58:51.060Z,16.80
2017-09-23T05:01:18.511Z,16.02
2017-09-23T05:03:45.984Z,17.90
2017-09-23T05:06:13.436Z,17.67
2017-09-23T05:08:40.907Z,16.87
2017-09-23T05:11:09.149Z,16.33
2017-09-23T05:13:36.640Z,15.98
2017-09-23T05:16:04.869Z,16.62
2017-09-23T05:18:33.108Z,15.38
2017-09-23T05:21:00.561Z,14.87
2017-09-23T05:23:28.036Z,16.37
2017-09-23T05:25:55.492Z,15.88
2017-09-23T05:28:23.667Z,16.25
2017-09-23T05:30:51.136Z,15.73
2017-09-23T05:33:18.593Z,14.68
2017-09-23T05:35:46.086Z,16.90
2017-09-23T05:38:13.532Z,16.17
2017-09-23T05:40:40.995Z,21.30
2017-09-23T05:43:08.509Z,16.92
2017-09-23T05:45:36.104Z,19.48
2017-09-23T05:48:03.556Z,14.60
2017-09-23T05:50:31.004Z,20.40
2017-09-23T05:52:58.486Z,21.67
2017-09-23T05:55:26.264Z,17.98
2017-09-23T05:57:54.512Z,17.87
2017-09-23T06:00:21.980Z,19.83
2017-09-23T06:02:49.440Z,15.93
2017-09-23T06:05:17.687Z,17.58
2017-09-23T06:07:45.114Z,15.35
2017-09-23T06:10:12.736Z,17.17
2017-09-23T06:12:40.199Z,19.20
2017-09-23T06:15:08.448Z,16.83
2017-09-23T06:17:35.912Z,15.50
2017-09-23T06:20:03.372Z,15.93
2017-09-23T06:22:30.845Z,17.20
2017-09-23T06:24:59.056Z,16.50
2017-09-23T06:27:26.537Z,18.95
2017-09-23T06:29:53.999Z,16.20
2017-09-23T06:32:21.497Z,15.50
2017-09-23T06:34:48.946Z,15.82
2017-09-23T06:37:17.183Z,19.37
2017-09-23T06:39:44.696Z,16.77
2017-09-23T06:42:12.779Z,17.62
2017-09-23T06:44:40.352Z,22.48
2017-09-23T06:47:07.839Z,17.02
2017-09-23T06:49:35.277Z,17.73
2017-09-23T06:52:02.742Z,17.10
2017-09-23T06:54:30.184Z,15.87
2017-09-23T06:56:57.653Z,17.57
2017-09-23T06:59:25.117Z,15.83
2017-09-23T07:01:52.596Z,17.00
2017-09-23T07:04:20.803Z,18.10
2017-09-23T07:06:48.298Z,17.63
2017-09-23T07:09:15.757Z,18.03
2017-09-23T07:11:43.199Z,21.17
2017-09-23T07:14:10.660Z,24.67
2017-09-23T07:16:38.104Z,24.53
2017-09-23T07:19:05.572Z,21.10
2017-09-23T07:21:33.021Z,22.80
2017-09-23T07:24:00.585Z,22.07
2017-09-23T07:26:28.053Z,22.77
2017-09-23T07:28:55.515Z,21.83
2017-09-23T07:31:22.977Z,22.93
2017-09-23T07:33:50.442Z,23.47
2017-09-23T07:36:17.909Z,22.07
2017-09-23T07:38:45.370Z,24.97
2017-09-23T07:41:13.600Z,24.40
2017-09-23T07:43:41.070Z,22.17
2017-09-23T07:46:08.540Z,24.57
2017-09-23T07:48:35.984Z,23.70
2017-09-23T07:51:03.466Z,23.43
2017-09-23T07:53:30.921Z,24.13
2017-09-23T07:55:59.133Z,22.90
2017-09-23T07:58:26.629Z,22.17
2017-09-23T08:00:54.068Z,22.60
2017-09-23T08:03:21.565Z,23.03
2017-09-23T08:05:49.792Z,22.70
2017-09-23T08:08:17.246Z,22.17
2017-09-23T08:10:45.481Z,23.17
2017-09-23T08:13:12.933Z,24.30
2017-09-23T08:15:41.165Z,23.17
2017-09-23T08:18:08.631Z,24.10
2017-09-23T08:20:36.096Z,24.93
2017-09-23T08:23:03.561Z,26.77
2017-09-23T08:25:31.795Z,24.97
2017-09-23T08:27:59.245Z,25.50
2017-09-23T08:30:26.700Z,24.40
2017-09-23T08:32:54.167Z,23.50
2017-09-23T08:35:21.609Z,24.30
2017-09-23T08:37:49.084Z,23.03
2017-09-23T08:40:16.621Z,23.97
2017-09-23T08:42:44.080Z,22.40
2017-09-23T08:45:11.543Z,22.93
2017-09-23T08:47:39.007Z,21.83
2017-09-23T08:50:06.488Z,22.23
2017-09-23T08:52:34.012Z,23.87
2017-09-23T08:55:01.500Z,26.10
2017-09-23T08:57:28.975Z,27.63
2017-09-23T08:59:57.204Z,25.70
2017-09-23T09:02:24.640Z,24.53
2017-09-23T09:04:52.094Z,25.53
2017-09-23T09:07:19.554Z,25.90
2017-09-23T09:09:47.000Z,25.17
2017-09-23T09:12:14.540Z,31.03
2017-09-23T09:14:42.464Z,28.13
2017-09-23T09:17:09.940Z,26.53
2017-09-23T09:19:37.390Z,25.37
2017-09-23T09:22:04.853Z,24.80
2017-09-23T09:24:32.339Z,25.40
2017-09-23T09:26:59.816Z,24.03
2017-09-23T09:29:27.259Z,25.57
2017-09-23T09:31:54.700Z,23.50
2017-09-23T09:34:22.932Z,26.90
2017-09-23T09:36:51.000Z,23.30
2017-09-23T09:39:18.480Z,25.63
2017-09-23T09:41:45.908Z,27.20
2017-09-23T09:44:13.348Z,25.10
2017-09-23T09:46:40.840Z,25.17
2017-09-23T09:49:08.311Z,26.83
2017-09-23T09:51:36.917Z,26.47
2017-09-23T09:54:04.369Z,26.63
2017-09-23T09:56:31.831Z,27.90
2017-09-23T09:58:59.304Z,28.00
2017-09-23T10:01:26.768Z,27.67
2017-09-23T10:03:54.237Z,28.53
2017-09-23T10:06:21.694Z,31.00
2017-09-23T10:08:49.153Z,27.30
2017-09-23T10:11:16.598Z,25.37
2017-09-23T10:13:44.054Z,27.50
2017-09-23T10:16:11.494Z,27.27
2017-09-23T10:18:38.965Z,27.43
2017-09-23T10:21:06.482Z,28.27
2017-09-23T10:23:34.735Z,28.70
2017-09-23T10:26:02.233Z,28.50
2017-09-23T10:28:30.440Z,26.87
2017-09-23T10:30:57.913Z,26.17
2017-09-23T10:33:25.372Z,25.83
2017-09-23T10:35:52.858Z,27.40
2017-09-23T10:38:21.061Z,26.83
2017-09-23T10:40:48.567Z,29.17
2017-09-23T10:43:16.049Z,27.60
2017-09-23T10:45:44.248Z,27.20
2017-09-23T10:48:11.720Z,29.00
2017-09-23T10:50:39.196Z,30.07
2017-09-23T10:53:06.776Z,28.77
2017-09-23T10:55:35.016Z,27.40
2017-09-23T10:58:03.268Z,25.77
2017-09-23T11:00:30.717Z,24.87
2017-09-23T11:02:58.172Z,25.17
2017-09-23T11:05:25.614Z,25.10
2017-09-23T11:07:53.095Z,23.73
2017-09-23T11:10:20.572Z,24.20
2017-09-23T11:12:48.061Z,22.80
2017-09-23T11:15:15.533Z,20.57
2017-09-23T11:17:43.751Z,23.13
2017-09-23T11:20:11.208Z,20.67
2017-09-23T11:22:38.654Z,21.33
2017-09-23T11:25:06.131Z,22.80
2017-09-23T11:27:34.365Z,23.20
2017-09-23T11:30:01.820Z,22.00
2017-09-23T11:32:29.293Z,22.53
2017-09-23T11:34:56.739Z,21.90
2017-09-23T11:37:24.221Z,22.87
2017-09-23T11:39:51.670Z,23.10
2017-09-23T11:42:19.180Z,24.73
2017-09-23T11:44:47.411Z,25.47
2017-09-23T11:47:14.860Z,23.30
2017-09-23T11:49:42.324Z,21.00
2017-09-23T11:52:09.781Z,22.27
2017-09-23T11:54:37.273Z,21.27
2017-09-23T11:57:04.720Z,22.33
2017-09-23T11:59:32.205Z,21.43
2017-09-23T12:02:00.411Z,19.10
2017-09-23T12:04:27.860Z,19.80
2017-09-23T12:06:55.316Z,21.47
2017-09-23T12:09:22.805Z,20.30
2017-09-23T12:11:50.281Z,18.60
2017-09-23T12:14:17.735Z,20.50
2017-09-23T12:16:45.172Z,20.27
2017-09-23T12:19:12.644Z,18.97
2017-09-23T12:21:40.099Z,18.17
2017-09-23T12:24:07.545Z,20.93
2017-09-23T12:26:34.997Z,19.37
2017-09-23T12:29:02.445Z,19.13
2017-09-23T12:31:29.931Z,19.30
2017-09-23T12:33:58.154Z,22.23
2017-09-23T12:36:25.611Z,19.47
2017-09-23T12:38:53.068Z,17.60
2017-09-23T12:41:20.524Z,18.90
2017-09-23T12:43:47.983Z,16.00
2017-09-23T12:46:15.437Z,17.80
2017-09-23T12:48:43.632Z,19.17
2017-09-23T12:51:11.085Z,18.67
2017-09-23T12:53:38.539Z,16.70
2017-09-23T12:56:06.009Z,17.23
2017-09-23T12:58:33.642Z,15.97
2017-09-23T13:01:01.105Z,16.27
2017-09-23T13:03:29.355Z,15.37
2017-09-23T13:05:56.814Z,14.80
2017-09-23T13:08:24.316Z,16.10
2017-09-23T13:10:51.776Z,15.43
2017-09-23T13:13:19.239Z,13.87
2017-09-23T13:15:46.719Z,16.30
2017-09-23T13:18:14.952Z,16.60
2017-09-23T13:20:42.404Z,15.57
2017-09-23T13:23:09.900Z,16.13
2017-09-23T13:25:38.140Z,14.93
2017-09-23T13:28:05.696Z,15.30
2017-09-23T13:30:33.216Z,14.27
2017-09-23T13:33:00.687Z,14.27
2017-09-23T13:35:28.215Z,14.93
2017-09-23T13:37:56.521Z,13.30
2017-09-23T13:40:24.000Z,12.80
2017-09-23T13:42:51.515Z,13.30
2017-09-23T13:45:19.724Z,13.97
2017-09-23T13:47:47.185Z,13.60
2017-09-23T13:50:14.677Z,13.43
2017-09-23T13:52:42.948Z,14.10
2017-09-23T13:55:10.408Z,14.87
2017-09-23T13:57:38.626Z,14.53
2017-09-23T14:00:06.095Z,16.20
2017-09-23T14:02:33.560Z,14.93
2017-09-23T14:05:01.019Z,11.20
2017-09-23T14:07:28.487Z,13.03
2017-09-23T14:09:55.940Z,16.37
2017-09-23T14:12:23.397Z,15.10
2017-09-23T14:14:50.845Z,12.73
2017-09-23T14:17:18.308Z,13.97
2017-09-23T14:19:45.749Z,13.10
2017-09-23T14:22:13.233Z,13.57
2017-09-23T14:24:40.704Z,12.83
2017-09-23T14:27:08.930Z,11.20
2017-09-23T14:29:36.413Z,10.27
2017-09-23T14:32:04.506Z,11.10
2017-09-23T14:34:31.961Z,11.60
2017-09-23T14:37:00.176Z,11.43
2017-09-23T14:39:27.655Z,9.63
2017-09-23T14:41:55.126Z,14.43
2017-09-23T14:44:22.612Z,14.37
2017-09-23T14:46:50.867Z,13.67
2017-09-23T14:49:18.353Z,13.43
2017-09-23T14:51:46.595Z,13.47
2017-09-23T14:54:14.034Z,13.30
2017-09-23T14:56:41.546Z,14.57
2017-09-23T14:59:08.987Z,16.47
2017-09-23T15:01:37.222Z,17.43
2017-09-23T15:04:04.654Z,16.77
2017-09-23T15:06:32.121Z,18.13
2017-09-23T15:08:59.581Z,17.43
2017-09-23T15:11:27.087Z,15.23
2017-09-23T15:13:55.341Z,16.60
2017-09-23T15:16:22.888Z,17.07
2017-09-23T15:18:50.366Z,22.33
2017-09-23T15:21:17.813Z,15.17
2017-09-23T15:23:45.277Z,16.10
2017-09-23T15:26:12.726Z,15.40
2017-09-23T15:28:40.249Z,15.50
2017-09-23T15:31:07.751Z,15.50
2017-09-23T15:33:35.236Z,15.10
2017-09-23T15:36:03.981Z,15.13
2017-09-23T15:38:31.420Z,15.83
2017-09-23T15:40:58.877Z,17.47
2017-09-23T15:43:26.353Z,16.63
2017-09-23T15:45:53.804Z,15.80
2017-09-23T15:48:21.273Z,15.77
2017-09-23T15:50:49.484Z,15.53
2017-09-23T15:53:16.972Z,15.97
2017-09-23T15:55:44.427Z,15.03
2017-09-23T15:58:12.480Z,17.37
2017-09-23T16:00:39.977Z,17.60
2017-09-23T16:03:07.476Z,16.10
2017-09-23T16:05:34.983Z,19.00
2017-09-23T16:08:02.429Z,18.30
2017-09-23T16:10:29.969Z,19.10
2017-09-23T16:12:57.421Z,17.37
2017-09-23T16:15:24.888Z,16.10
2017-09-23T16:17:52.456Z,16.17
2017-09-23T16:20:19.926Z,15.87
2017-09-23T16:22:47.437Z,15.97
2017-09-23T16:25:14.884Z,16.43
2017-09-23T16:27:42.424Z,15.57
2017-09-23T16:30:10.657Z,16.33
2017-09-23T16:32:38.131Z,16.97
2017-09-23T16:35:05.588Z,16.47
2017-09-23T16:37:33.102Z,16.57
2017-09-23T16:40:00.561Z,17.27
2017-09-23T16:42:28.021Z,17.33
2017-09-23T16:44:55.491Z,18.60
2017-09-23T16:47:22.965Z,18.43
2017-09-23T16:49:50.494Z,15.63
2017-09-23T16:52:17.952Z,16.73
2017-09-23T16:54:45.393Z,16.80
2017-09-23T16:57:12.852Z,16.43
2017-09-23T16:59:40.310Z,17.53
2017-09-23T17:02:07.804Z,16.20
2017-09-23T17:04:35.268Z,16.30
2017-09-23T17:07:02.786Z,16.60
2017-09-23T17:09:30.233Z,16.50
2017-09-23T17:11:57.687Z,18.43
2017-09-23T17:14:25.185Z,17.83
2017-09-23T17:16:52.632Z,20.20
2017-09-23T17:19:20.112Z,19.93
2017-09-23T17:21:48.340Z,17.27
2017-09-23T17:24:15.840Z,16.93
2017-09-23T17:26:43.288Z,18.20
2017-09-23T17:29:10.757Z,19.37
2017-09-23T17:31:38.195Z,19.77
2017-09-23T17:34:05.750Z,18.90
2017-09-23T17:36:33.217Z,19.20
2017-09-23T17:39:00.693Z,21.33
2017-09-23T17:41:28.943Z,19.63
2017-09-23T17:43:56.708Z,20.77
2017-09-23T17:46:24.175Z,20.50
2017-09-23T17:48:52.413Z,20.90
2017-09-23T17:51:19.876Z,19.80
2017-09-23T17:53:47.332Z,19.77
2017-09-23T17:56:15.576Z,19.13
2017-09-23T17:58:43.032Z,20.17
2017-09-23T18:01:10.496Z,18.80
2017-09-23T18:03:37.960Z,20.67
2017-09-23T18:06:05.406Z,20.90
2017-09-23T18:08:32.874Z,20.00
2017-09-23T18:11:00.327Z,18.93
2017-09-23T18:13:27.796Z,21.00
2017-09-23T18:15:55.240Z,20.27
2017-09-23T18:18:22.696Z,19.77
2017-09-23T18:20:50.972Z,20.53
2017-09-23T18:23:18.421Z,20.20
2017-09-23T18:25:45.885Z,18.53
2017-09-23T18:28:13.340Z,19.53
2017-09-23T18:30:40.811Z,19.87
2017-09-23T18:33:08.265Z,19.93
2017-09-23T18:35:35.754Z,18.47
2017-09-23T18:38:03.190Z,20.57
2017-09-23T18:40:30.746Z,17.57
2017-09-23T18:42:58.211Z,19.67
2017-09-23T18:45:25.671Z,18.73
2017-09-23T18:47:53.149Z,17.90
2017-09-23T18:50:21.364Z,19.00
2017-09-23T18:52:48.821Z,20.20
2017-09-23T18:55:16.306Z,18.63
2017-09-23T18:57:43.784Z,20.90
2017-09-23T19:00:11.263Z,21.90
2017-09-23T19:02:39.506Z,21.80
2017-09-23T19:05:06.953Z,20.43
2017-09-23T19:07:34.440Z,19.43
2017-09-23T19:10:02.683Z,19.67
2017-09-23T19:12:30.181Z,22.13
2017-09-23T19:14:58.413Z,20.13
2017-09-23T19:17:25.895Z,21.40
2017-09-23T19:19:54.113Z,22.20
2017-09-23T19:22:21.587Z,21.03
2017-09-23T19:24:49.033Z,21.60
2017-09-23T19:27:16.502Z,21.77
2017-09-23T19:29:43.953Z,21.00
2017-09-23T19:32:11.461Z,22.50
2017-09-23T19:34:39.749Z,22.67
2017-09-23T19:37:07.203Z,23.00
2017-09-23T19:39:34.693Z,24.40
2017-09-23T19:42:02.320Z,23.83
2017-09-23T19:44:29.789Z,25.63
2017-09-23T19:46:57.275Z,27.27
2017-09-23T19:49:24.730Z,24.63
2017-09-23T19:51:52.335Z,26.93
2017-09-23T19:54:20.574Z,28.90
2017-09-23T19:56:48.114Z,26.23
2017-09-23T19:59:15.571Z,28.67
2017-09-23T20:01:43.072Z,28.77
2017-09-23T20:04:11.311Z,31.70
2017-09-23T20:06:38.884Z,30.50
2017-09-23T20:09:06.358Z,30.83
2017-09-23T20:11:33.797Z,30.80
2017-09-23T20:14:01.274Z,31.90
2017-09-23T20:16:29.527Z,30.27
2017-09-23T20:18:56.982Z,30.27
2017-09-23T20:21:24.473Z,32.80
2017-09-23T20:23:52.724Z,31.77
2017-09-23T20:26:20.192Z,31.87
2017-09-23T20:28:48.403Z,33.93
2017-09-23T20:31:15.900Z,29.03
2017-09-23T20:33:43.359Z,33.00
2017-09-23T20:36:10.819Z,32.10
2017-09-23T20:38:38.302Z,31.97
2017-09-23T20:41:06.564Z,33.20
2017-09-23T20:43:34.038Z,35.10
2017-09-23T20:46:02.283Z,34.67
2017-09-23T20:48:29.742Z,34.70
2017-09-23T20:50:58.059Z,35.90
2017-09-23T20:53:25.535Z,32.50
2017-09-23T20:55:53.015Z,34.53
2017-09-23T20:58:20.490Z,33.30
2017-09-23T21:00:47.938Z,40.40
2017-09-23T21:03:15.411Z,35.23
2017-09-23T21:05:43.709Z,37.47
2017-09-23T21:08:11.915Z,39.40
2017-09-23T21:10:39.407Z,36.93
2017-09-23T21:13:06.858Z,35.50
2017-09-23T21:15:34.339Z,35.53
2017-09-23T21:18:02.544Z,37.20
2017-09-23T21:20:30.030Z,38.83
2017-09-23T21:22:57.520Z,38.63
2017-09-23T21:25:25.784Z,38.90
2017-09-23T21:27:53.249Z,38.87
2017-09-23T21:30:20.707Z,40.73
2017-09-23T21:32:48.956Z,41.30
2017-09-23T21:35:16.403Z,39.50
2017-09-23T21:37:43.880Z,38.83
2017-09-23T21:40:11.356Z,40.97
2017-09-23T21:42:39.561Z,43.27
2017-09-23T21:45:07.032Z,38.73
2017-09-23T21:47:34.552Z,42.83
2017-09-23T21:50:02.809Z,42.47
2017-09-23T21:52:31.033Z,42.83
2017-09-23T21:54:58.515Z,43.53
2017-09-23T21:57:25.974Z,44.87
2017-09-23T21:59:53.432Z,40.43
2017-09-23T22:02:20.869Z,42.83
2017-09-23T22:04:48.375Z,42.10
2017-09-23T22:07:16.613Z,45.50
2017-09-23T22:09:44.079Z,43.37
2017-09-23T22:12:11.555Z,44.37
2017-09-23T22:14:39.780Z,40.60
2017-09-23T22:17:07.253Z,45.50
2017-09-23T22:19:34.705Z,45.37
2017-09-23T22:22:02.179Z,45.13
2017-09-23T22:24:29.631Z,41.27
2017-09-23T22:26:57.075Z,44.30
2017-09-23T22:29:24.641Z,44.37
2017-09-23T22:31:52.136Z,43.50
2017-09-23T22:34:20.457Z,41.47
2017-09-23T22:36:47.916Z,46.93
2017-09-23T22:39:15.360Z,45.50
2017-09-23T22:41:42.836Z,48.10
2017-09-23T22:44:10.286Z,42.50
2017-09-23T22:46:37.743Z,46.67
2017-09-23T22:49:05.203Z,45.87
2017-09-23T22:51:32.681Z,45.83
2017-09-23T22:54:00.127Z,45.37
2017-09-23T22:56:27.602Z,44.13
2017-09-23T22:58:55.048Z,44.33
2017-09-23T23:01:22.519Z,47.20
2017-09-23T23:03:50.740Z,46.43
2017-09-23T23:06:18.212Z,46.70
2017-09-23T23:08:45.684Z,45.70
2017-09-23T23:11:13.128Z,44.00
2017-09-23T23:13:40.621Z,46.37
2017-09-23T23:16:08.871Z,49.30
2017-09-23T23:18:36.348Z,49.10
2017-09-23T23:21:05.173Z,48.43
2017-09-23T23:23:32.711Z,49.00
2017-09-23T23:26:00.986Z,50.60
2017-09-23T23:28:29.244Z,45.93
2017-09-23T23:30:56.711Z,49.77
2017-09-23T23:33:24.951Z,48.50
2017-09-23T23:35:52.425Z,51.83
2017-09-23T23:38:19.876Z,53.60
2017-09-23T23:40:47.356Z,51.07
2017-09-23T23:43:15.589Z,48.13
2017-09-23T23:45:43.809Z,53.77
2017-09-23T23:48:12.058Z,54.50
2017-09-23T23:50:39.513Z,55.80
2017-09-23T23:53:06.976Z,60.13
2017-09-23T23:55:35.192Z,56.47
2017-09-23T23:58:02.656Z,53.60
